createdAt,value
2017-11-13T00:01:08.271Z,38.83
2017-11-13T00:03:36.236Z,36.53
2017-11-13T00:06:04.150Z,37.28
2017-11-13T00:08:32.125Z,41.17
2017-11-13T00:11:00.019Z,44.85
2017-11-13T00:13:28.131Z,41.80
2017-11-13T00:15:56.034Z,41.92
2017-11-13T00:18:24.025Z,43.85
2017-11-13T00:20:51.968Z,43.42
2017-11-13T00:23:19.926Z,40.95
2017-11-13T00:25:47.829Z,45.65
2017-11-13T00:28:15.809Z,40.17
2017-11-13T00:30:43.717Z,38.65
2017-11-13T00:33:11.683Z,44.60
2017-11-13T00:35:39.587Z,37.15
2017-11-13T00:38:07.541Z,40.70
2017-11-13T00:40:36.214Z,43.53
2017-11-13T00:43:04.352Z,44.17
2017-11-13T00:45:32.256Z,43.45
2017-11-13T00:48:00.217Z,49.05
2017-11-13T00:50:28.116Z,42.62
2017-11-13T00:52:56.076Z,35.80
2017-11-13T00:55:23.972Z,41.95
2017-11-13T00:57:51.888Z,33.45
2017-11-13T01:00:19.850Z,39.90
2017-11-13T01:02:47.755Z,35.60
2017-11-13T01:05:15.709Z,42.58
2017-11-13T01:07:43.606Z,41.83
2017-11-13T01:10:11.572Z,39.28
2017-11-13T01:12:39.631Z,40.63
2017-11-13T01:15:08.376Z,39.08
2017-11-13T01:17:36.277Z,46.15
2017-11-13T01:20:04.265Z,36.10
2017-11-13T01:22:32.166Z,40.05
2017-11-13T01:25:00.133Z,37.92
2017-11-13T01:27:28.056Z,39.25
2017-11-13T01:29:56.068Z,39.38
2017-11-13T01:32:23.977Z,39.17
2017-11-13T01:34:51.958Z,40.80
2017-11-13T01:37:19.849Z,39.38
2017-11-13T01:39:48.571Z,38.00
2017-11-13T01:42:16.525Z,40.58
2017-11-13T01:44:44.524Z,37.10
2017-11-13T01:47:12.464Z,40.30
2017-11-13T01:49:40.450Z,37.00
2017-11-13T01:52:08.357Z,38.70
2017-11-13T01:54:36.340Z,35.53
2017-11-13T01:57:04.306Z,37.03
2017-11-13T01:59:32.289Z,34.38
2017-11-13T02:02:00.208Z,36.50
2017-11-13T02:04:28.195Z,37.03
2017-11-13T02:06:56.165Z,39.35
2017-11-13T02:09:24.145Z,39.63
2017-11-13T02:11:52.268Z,34.47
2017-11-13T02:14:20.210Z,38.35
2017-11-13T02:16:48.210Z,36.22
2017-11-13T02:19:16.183Z,40.63
2017-11-13T02:21:44.238Z,34.20
2017-11-13T02:24:12.257Z,34.47
2017-11-13T02:26:40.291Z,37.22
2017-11-13T02:29:08.277Z,38.30
2017-11-13T02:31:36.291Z,32.05
2017-11-13T02:34:04.261Z,37.35
2017-11-13T02:36:32.301Z,35.88
2017-11-13T02:39:00.297Z,33.60
2017-11-13T02:41:28.265Z,39.92
2017-11-13T02:43:56.258Z,35.92
2017-11-13T02:46:24.289Z,41.20
2017-11-13T02:48:52.277Z,41.65
2017-11-13T02:51:20.328Z,35.22
2017-11-13T02:53:48.301Z,39.80
2017-11-13T02:56:16.333Z,29.60
2017-11-13T02:58:44.388Z,31.58
2017-11-13T03:01:12.413Z,35.60
2017-11-13T03:03:40.451Z,34.60
2017-11-13T03:06:08.449Z,35.15
2017-11-13T03:08:36.376Z,33.90
2017-11-13T03:11:04.316Z,36.47
2017-11-13T03:13:32.317Z,36.90
2017-11-13T03:16:00.254Z,35.67
2017-11-13T03:18:28.274Z,38.47
2017-11-13T03:20:56.227Z,34.83
2017-11-13T03:23:24.201Z,35.67
2017-11-13T03:25:52.091Z,37.67
2017-11-13T03:28:20.067Z,36.40
2017-11-13T03:30:47.992Z,39.22
2017-11-13T03:33:16.125Z,35.20
2017-11-13T03:35:44.021Z,36.85
2017-11-13T03:38:11.999Z,41.47
2017-11-13T03:40:39.911Z,33.38
2017-11-13T03:43:07.861Z,41.33
2017-11-13T03:45:35.768Z,37.35
2017-11-13T03:48:03.733Z,37.20
2017-11-13T03:50:31.646Z,37.60
2017-11-13T03:52:59.601Z,35.05
2017-11-13T03:55:27.521Z,38.50
2017-11-13T03:57:55.458Z,34.28
2017-11-13T04:00:23.381Z,42.28
2017-11-13T04:02:51.470Z,39.55
2017-11-13T04:05:19.372Z,39.40
2017-11-13T04:07:47.364Z,45.85
2017-11-13T04:10:15.253Z,39.85
2017-11-13T04:12:43.236Z,40.55
2017-11-13T04:15:11.136Z,44.75
2017-11-13T04:17:39.037Z,41.25
2017-11-13T04:20:07.051Z,41.08
2017-11-13T04:22:34.969Z,44.03
2017-11-13T04:25:02.943Z,42.17
2017-11-13T04:27:31.634Z,36.95
2017-11-13T04:29:59.595Z,39.90
2017-11-13T04:32:27.689Z,39.25
2017-11-13T04:34:55.646Z,43.42
2017-11-13T04:37:23.622Z,44.75
2017-11-13T04:39:51.598Z,39.40
2017-11-13T04:42:19.523Z,38.38
2017-11-13T04:44:47.476Z,39.22
2017-11-13T04:47:15.383Z,45.00
2017-11-13T04:49:43.355Z,41.88
2017-11-13T04:52:11.277Z,42.00
2017-11-13T04:54:39.229Z,39.92
2017-11-13T04:57:07.137Z,38.05
2017-11-13T04:59:35.091Z,39.33
2017-11-13T05:02:03.036Z,39.67
2017-11-13T05:04:31.007Z,38.85
2017-11-13T05:06:59.004Z,41.70
2017-11-13T05:09:27.007Z,41.20
2017-11-13T05:11:54.940Z,42.85
2017-11-13T05:14:22.972Z,35.05
2017-11-13T05:16:50.898Z,36.10
2017-11-13T05:19:18.866Z,45.88
2017-11-13T05:21:46.793Z,45.75
2017-11-13T05:24:14.779Z,38.60
2017-11-13T05:26:42.752Z,39.22
2017-11-13T05:29:10.662Z,34.47
2017-11-13T05:31:38.625Z,41.33
2017-11-13T05:34:06.526Z,33.88
2017-11-13T05:36:34.475Z,38.38
2017-11-13T05:39:02.387Z,35.53
2017-11-13T05:41:30.333Z,35.83
2017-11-13T05:43:59.012Z,41.67
2017-11-13T05:46:30.366Z,40.70
2017-11-13T05:49:00.844Z,43.00
2017-11-13T05:51:31.197Z,41.70
2017-11-13T05:53:59.105Z,42.88
2017-11-13T05:56:27.116Z,38.97
2017-11-13T05:58:55.018Z,47.33
2017-11-13T06:01:22.984Z,35.88
2017-11-13T06:03:50.970Z,36.97
2017-11-13T06:06:19.702Z,35.75
2017-11-13T06:08:47.602Z,34.40
2017-11-13T06:11:15.570Z,34.85
2017-11-13T06:13:43.547Z,30.48
2017-11-13T06:16:11.478Z,35.88
2017-11-13T06:18:39.373Z,25.60
2017-11-13T06:21:07.317Z,36.83
2017-11-13T06:23:35.210Z,27.95
2017-11-13T06:26:03.162Z,30.37
2017-11-13T06:28:31.035Z,25.67
2017-11-13T06:30:58.962Z,28.77
2017-11-13T06:33:27.833Z,34.08
2017-11-13T06:35:55.723Z,37.45
2017-11-13T06:38:23.658Z,29.37
2017-11-13T06:40:51.544Z,31.92
2017-11-13T06:43:19.475Z,35.70
2017-11-13T06:45:47.353Z,36.85
2017-11-13T06:48:15.297Z,39.38
2017-11-13T06:50:43.235Z,39.05
2017-11-13T06:53:12.027Z,32.75
2017-11-13T06:55:39.907Z,31.85
2017-11-13T06:58:07.843Z,38.35
2017-11-13T07:00:35.717Z,39.45
2017-11-13T07:03:03.834Z,37.90
2017-11-13T07:05:31.728Z,43.78
2017-11-13T07:07:59.661Z,32.95
2017-11-13T07:10:27.541Z,34.45
2017-11-13T07:12:55.482Z,34.03
2017-11-13T07:15:23.396Z,33.30
2017-11-13T07:17:51.326Z,31.42
2017-11-13T07:20:19.216Z,29.17
2017-11-13T07:22:47.145Z,35.53
2017-11-13T07:25:15.800Z,31.98
2017-11-13T07:27:43.761Z,30.10
2017-11-13T07:30:11.645Z,36.42
2017-11-13T07:32:39.773Z,28.27
2017-11-13T07:35:07.696Z,30.40
2017-11-13T07:37:35.569Z,32.60
2017-11-13T07:40:03.562Z,29.95
2017-11-13T07:42:31.505Z,23.98
2017-11-13T07:44:59.482Z,28.40
2017-11-13T07:47:27.377Z,29.85
2017-11-13T07:49:55.312Z,25.65
2017-11-13T07:52:23.198Z,29.23
2017-11-13T07:54:51.196Z,24.58
2017-11-13T07:57:19.078Z,26.62
2017-11-13T07:59:47.028Z,28.67
2017-11-13T08:02:14.909Z,25.27
2017-11-13T08:04:42.847Z,26.92
2017-11-13T08:07:11.500Z,32.72
2017-11-13T08:09:39.443Z,23.70
2017-11-13T08:12:07.333Z,24.45
2017-11-13T08:14:35.272Z,23.62
2017-11-13T08:17:03.174Z,25.33
2017-11-13T08:19:31.120Z,27.35
2017-11-13T08:21:59.053Z,22.25
2017-11-13T08:24:27.047Z,27.13
2017-11-13T08:26:54.926Z,22.02
2017-11-13T08:29:22.912Z,30.67
2017-11-13T08:31:51.033Z,28.58
2017-11-13T08:34:19.811Z,22.62
2017-11-13T08:36:47.770Z,30.23
2017-11-13T08:39:15.722Z,34.30
2017-11-13T08:41:43.626Z,29.77
2017-11-13T08:44:12.360Z,30.30
2017-11-13T08:46:40.245Z,38.35
2017-11-13T08:49:08.136Z,31.12
2017-11-13T08:51:36.070Z,26.08
2017-11-13T08:54:03.988Z,19.67
2017-11-13T08:56:32.684Z,24.33
2017-11-13T08:59:01.342Z,26.10
2017-11-13T09:01:29.292Z,24.30
2017-11-13T09:03:57.178Z,27.33
2017-11-13T09:06:25.134Z,23.45
2017-11-13T09:08:53.027Z,27.13
2017-11-13T09:11:20.964Z,22.73
2017-11-13T09:13:48.857Z,18.75
2017-11-13T09:16:16.800Z,21.58
2017-11-13T09:18:44.677Z,19.17
2017-11-13T09:21:12.608Z,23.73
2017-11-13T09:23:41.773Z,24.42
2017-11-13T09:26:09.716Z,26.27
2017-11-13T09:28:37.600Z,26.60
2017-11-13T09:31:05.552Z,19.20
2017-11-13T09:33:33.478Z,31.52
2017-11-13T09:36:01.494Z,27.95
2017-11-13T09:38:29.525Z,21.67
2017-11-13T09:40:57.496Z,24.05
2017-11-13T09:43:25.379Z,25.12
2017-11-13T09:45:53.399Z,25.67
2017-11-13T09:48:21.339Z,31.50
2017-11-13T09:50:52.756Z,24.67
2017-11-13T09:53:20.690Z,30.37
2017-11-13T09:55:48.613Z,23.33
2017-11-13T09:58:16.601Z,19.85
2017-11-13T10:00:44.523Z,22.77
2017-11-13T10:03:12.470Z,25.92
2017-11-13T10:05:40.409Z,24.70
2017-11-13T10:08:08.392Z,24.70
2017-11-13T10:10:36.313Z,27.92
2017-11-13T10:13:06.369Z,25.88
2017-11-13T10:15:35.117Z,28.35
2017-11-13T10:18:03.130Z,26.73
2017-11-13T10:20:34.571Z,26.70
2017-11-13T10:23:02.883Z,28.92
2017-11-13T10:25:30.829Z,30.17
2017-11-13T10:27:58.764Z,24.17
2017-11-13T10:30:26.664Z,24.52
2017-11-13T10:32:54.668Z,23.60
2017-11-13T10:35:22.615Z,25.05
2017-11-13T10:37:50.563Z,22.17
2017-11-13T10:40:19.866Z,22.70
2017-11-13T10:42:51.498Z,28.83
2017-11-13T10:45:19.473Z,24.87
2017-11-13T10:47:47.442Z,22.00
2017-11-13T10:50:15.376Z,16.95
2017-11-13T10:52:43.362Z,20.27
2017-11-13T10:55:11.370Z,22.17
2017-11-13T10:57:39.473Z,17.90
2017-11-13T11:00:07.530Z,22.62
2017-11-13T11:02:35.604Z,15.63
2017-11-13T11:05:03.607Z,14.48
2017-11-13T11:07:31.561Z,16.80
2017-11-13T11:09:59.567Z,21.83
2017-11-13T11:12:29.594Z,32.38
2017-11-13T11:15:03.030Z,26.25
2017-11-13T11:17:31.882Z,21.30
2017-11-13T11:19:59.876Z,21.23
2017-11-13T11:25:53.385Z,18.17
2017-11-13T11:28:21.412Z,15.07
2017-11-13T11:31:04.159Z,15.27
2017-11-13T11:33:36.648Z,14.75
2017-11-13T11:36:08.449Z,23.95
2017-11-13T11:38:37.449Z,19.05
2017-11-13T11:41:06.821Z,15.18
2017-11-13T11:43:35.213Z,16.30
2017-11-13T11:46:05.198Z,17.05
2017-11-13T11:48:40.169Z,17.20
2017-11-13T11:51:08.197Z,21.98
2017-11-13T11:53:46.163Z,17.77
2017-11-13T11:56:19.690Z,17.33
2017-11-13T11:58:48.582Z,23.12
2017-11-13T12:01:18.933Z,20.40
2017-11-13T12:03:46.838Z,13.85
2017-11-13T12:06:17.696Z,14.27
2017-11-13T12:08:47.900Z,21.60
2017-11-13T12:11:16.625Z,18.92
2017-11-13T12:13:46.250Z,15.27
2017-11-13T12:16:14.339Z,11.47
2017-11-13T12:18:42.402Z,8.43
2017-11-13T12:21:10.467Z,18.95
2017-11-13T12:23:38.434Z,15.88
2017-11-13T12:26:07.496Z,12.77
2017-11-13T12:28:35.410Z,18.40
2017-11-13T12:31:03.376Z,13.27
2017-11-13T12:33:31.271Z,15.65
2017-11-13T12:35:59.238Z,13.25
2017-11-13T12:38:27.177Z,19.02
2017-11-13T12:40:55.121Z,18.30
2017-11-13T12:43:23.083Z,17.37
2017-11-13T12:45:51.793Z,19.48
2017-11-13T12:48:19.706Z,17.20
2017-11-13T12:50:47.655Z,17.83
2017-11-13T12:53:15.565Z,10.32
2017-11-13T12:55:44.298Z,8.38
2017-11-13T12:58:13.005Z,14.32
2017-11-13T13:00:40.965Z,17.55
2017-11-13T13:03:08.953Z,8.82
2017-11-13T13:05:36.912Z,8.80
2017-11-13T13:08:04.907Z,18.83
2017-11-13T13:10:32.822Z,7.95
2017-11-13T13:13:00.929Z,8.57
2017-11-13T13:15:28.859Z,11.35
2017-11-13T13:17:56.884Z,12.07
2017-11-13T13:20:24.801Z,17.48
2017-11-13T13:22:52.756Z,12.63
2017-11-13T13:25:20.688Z,9.75
2017-11-13T13:27:48.710Z,11.48
2017-11-13T13:30:16.646Z,17.90
2017-11-13T13:32:44.630Z,19.12
2017-11-13T13:35:12.590Z,14.38
2017-11-13T13:37:40.589Z,8.70
2017-11-13T13:40:08.506Z,11.02
2017-11-13T13:42:36.594Z,14.15
2017-11-13T13:45:04.535Z,12.88
2017-11-13T13:47:32.488Z,15.93
2017-11-13T13:50:00.388Z,14.57
2017-11-13T13:52:28.368Z,9.10
2017-11-13T13:54:56.327Z,12.10
2017-11-13T13:57:24.334Z,10.50
2017-11-13T13:59:53.048Z,12.40
2017-11-13T14:02:20.962Z,19.75
2017-11-13T14:04:48.919Z,9.15
2017-11-13T14:07:16.842Z,8.38
2017-11-13T14:09:44.833Z,12.93
2017-11-13T14:12:12.798Z,14.15
2017-11-13T14:14:40.753Z,10.77
2017-11-13T14:17:08.665Z,11.07
2017-11-13T14:19:36.601Z,18.55
2017-11-13T14:22:04.513Z,14.95
2017-11-13T14:24:32.488Z,10.98
2017-11-13T14:27:00.410Z,19.62
2017-11-13T14:29:28.492Z,20.75
2017-11-13T14:31:56.454Z,7.22
2017-11-13T14:34:24.426Z,9.32
2017-11-13T14:36:52.359Z,11.02
2017-11-13T14:39:21.110Z,14.93
2017-11-13T14:41:52.736Z,13.35
2017-11-13T14:44:21.793Z,10.98
2017-11-13T14:46:50.237Z,9.57
2017-11-13T14:49:18.191Z,16.52
2017-11-13T14:51:47.149Z,12.82
2017-11-13T14:54:15.911Z,6.50
2017-11-13T14:56:43.811Z,5.03
2017-11-13T14:59:11.783Z,10.60
2017-11-13T15:01:44.346Z,5.43
2017-11-13T15:04:13.033Z,8.05
2017-11-13T15:06:40.964Z,11.63
2017-11-13T15:09:08.906Z,13.45
2017-11-13T15:11:36.876Z,12.73
2017-11-13T15:14:04.782Z,8.25
2017-11-13T15:16:32.728Z,6.72
2017-11-13T15:19:00.649Z,8.60
2017-11-13T15:21:28.652Z,11.93
2017-11-13T15:23:56.721Z,6.10
2017-11-13T15:26:24.678Z,6.05
2017-11-13T15:28:52.585Z,5.55
2017-11-13T15:31:20.535Z,6.47
2017-11-13T15:33:48.486Z,10.15
2017-11-13T15:36:16.446Z,11.35
2017-11-13T15:38:45.104Z,13.30
2017-11-13T15:41:13.031Z,12.68
2017-11-13T15:43:40.919Z,9.13
2017-11-13T15:46:08.843Z,8.13
2017-11-13T15:48:36.747Z,7.25
2017-11-13T15:51:04.746Z,10.20
2017-11-13T15:53:36.011Z,10.68
2017-11-13T15:56:04.061Z,14.30
2017-11-13T15:58:32.564Z,12.27
2017-11-13T16:01:00.971Z,12.63
2017-11-13T16:03:28.936Z,13.02
2017-11-13T16:05:57.654Z,8.65
2017-11-13T16:08:25.587Z,11.30
2017-11-13T16:10:53.998Z,6.53
2017-11-13T16:13:21.965Z,8.73
2017-11-13T16:15:49.992Z,11.12
2017-11-13T16:18:18.070Z,8.75
2017-11-13T16:20:46.096Z,7.75
2017-11-13T16:23:14.262Z,8.98
2017-11-13T16:25:42.356Z,7.90
2017-11-13T16:28:10.304Z,6.35
2017-11-13T16:30:38.405Z,5.70
2017-11-13T16:33:06.373Z,10.07
2017-11-13T16:35:34.361Z,9.40
2017-11-13T16:38:02.330Z,4.47
2017-11-13T16:40:30.298Z,9.77
2017-11-13T16:42:59.148Z,11.05
2017-11-13T16:45:27.143Z,6.75
2017-11-13T16:47:55.144Z,4.00
2017-11-13T16:50:23.065Z,8.88
2017-11-13T16:52:51.293Z,9.10
2017-11-13T16:55:19.214Z,10.18
2017-11-13T16:57:47.172Z,6.45
2017-11-13T17:00:15.094Z,12.85
2017-11-13T17:02:44.698Z,13.45
2017-11-13T17:05:12.681Z,8.73
2017-11-13T17:07:40.592Z,8.10
2017-11-13T17:10:08.619Z,13.52
2017-11-13T17:12:37.511Z,20.02
2017-11-13T17:15:05.507Z,13.77
2017-11-13T17:17:33.464Z,14.40
2017-11-13T17:20:10.193Z,10.65
2017-11-13T17:22:38.524Z,14.38
2017-11-13T17:25:07.266Z,13.25
2017-11-13T17:27:35.208Z,8.75
2017-11-13T17:30:10.898Z,8.05
2017-11-13T17:32:39.068Z,8.50
2017-11-13T17:35:08.196Z,12.25
2017-11-13T17:37:36.908Z,12.30
2017-11-13T17:40:05.159Z,11.95
2017-11-13T17:42:33.880Z,10.75
2017-11-13T17:45:01.854Z,12.55
2017-11-13T17:47:29.773Z,14.43
2017-11-13T17:49:57.761Z,11.45
2017-11-13T17:52:26.458Z,10.20
2017-11-13T17:54:54.485Z,6.10
2017-11-13T17:57:22.456Z,11.95
2017-11-13T17:59:50.442Z,8.70
2017-11-13T18:02:18.358Z,17.70
2017-11-13T18:04:46.284Z,9.85
2017-11-13T18:07:14.251Z,12.07
2017-11-13T18:09:42.177Z,8.77
2017-11-13T18:12:10.197Z,12.65
2017-11-13T18:14:38.369Z,11.35
2017-11-13T18:17:06.338Z,10.20
2017-11-13T18:19:34.270Z,15.02
2017-11-13T18:22:04.383Z,15.63
2017-11-13T18:24:32.310Z,16.55
2017-11-13T18:27:01.052Z,20.52
2017-11-13T18:29:28.973Z,15.93
2017-11-13T18:31:56.981Z,32.70
2017-11-13T18:34:24.916Z,23.33
2017-11-13T18:36:53.667Z,18.90
2017-11-13T18:39:21.586Z,20.65
2017-11-13T18:41:49.573Z,21.20
2017-11-13T18:44:19.106Z,18.25
2017-11-13T18:46:47.116Z,16.05
2017-11-13T18:49:15.806Z,12.80
2017-11-13T18:51:44.557Z,13.15
2017-11-13T18:54:12.480Z,18.75
2017-11-13T18:56:40.461Z,22.02
2017-11-13T18:59:08.407Z,16.48
2017-11-13T19:01:37.149Z,18.80
2017-11-13T19:04:05.082Z,17.12
2017-11-13T19:06:33.033Z,14.75
2017-11-13T19:09:00.936Z,17.90
2017-11-13T19:11:28.919Z,17.30
2017-11-13T19:13:57.060Z,14.20
2017-11-13T19:16:25.011Z,15.50
2017-11-13T19:18:52.941Z,13.70
2017-11-13T19:21:20.883Z,16.02
2017-11-13T19:23:48.882Z,17.75
2017-11-13T19:26:16.772Z,14.95
2017-11-13T19:28:44.722Z,13.77
2017-11-13T19:31:12.615Z,14.35
2017-11-13T19:33:40.565Z,9.32
2017-11-13T19:36:08.556Z,12.52
2017-11-13T19:38:36.500Z,10.48
2017-11-13T19:41:04.452Z,9.77
2017-11-13T19:43:32.567Z,10.82
2017-11-13T19:46:00.529Z,12.65
2017-11-13T19:48:28.480Z,12.90
2017-11-13T19:50:56.361Z,9.45
2017-11-13T19:53:24.352Z,12.82
2017-11-13T19:55:52.244Z,15.63
2017-11-13T19:58:20.960Z,18.25
2017-11-13T20:00:48.885Z,18.30
2017-11-13T20:03:16.897Z,27.45
2017-11-13T20:05:44.830Z,20.92
2017-11-13T20:08:13.543Z,22.20
2017-11-13T20:10:41.448Z,24.12
2017-11-13T20:13:09.446Z,23.38
2017-11-13T20:15:37.355Z,22.23
2017-11-13T20:18:05.352Z,18.98
2017-11-13T20:20:33.879Z,18.67
2017-11-13T20:23:02.555Z,18.45
2017-11-13T20:25:30.542Z,16.27
2017-11-13T20:27:59.026Z,20.58
2017-11-13T20:30:27.738Z,19.58
2017-11-13T20:32:55.627Z,16.17
2017-11-13T20:35:23.582Z,20.27
2017-11-13T20:37:51.476Z,20.52
2017-11-13T20:40:19.443Z,18.62
2017-11-13T20:42:47.500Z,20.83
2017-11-13T20:45:15.428Z,28.27
2017-11-13T20:47:43.475Z,27.45
2017-11-13T20:50:11.466Z,17.08
2017-11-13T20:52:39.396Z,16.67
2017-11-13T20:55:07.408Z,11.32
2017-11-13T20:57:35.303Z,15.10
2017-11-13T21:00:03.304Z,13.57
2017-11-13T21:02:31.283Z,11.98
2017-11-13T21:04:59.227Z,14.60
2017-11-13T21:07:27.117Z,11.93
2017-11-13T21:09:55.057Z,11.57
2017-11-13T21:12:22.942Z,13.48
2017-11-13T21:14:50.880Z,11.35
2017-11-13T21:17:18.756Z,12.07
2017-11-13T21:19:46.689Z,9.50
2017-11-13T21:22:14.576Z,12.68
2017-11-13T21:24:42.504Z,14.38
2017-11-13T21:27:10.382Z,10.60
2017-11-13T21:29:38.270Z,10.20
2017-11-13T21:32:06.301Z,9.10
2017-11-13T21:34:34.192Z,9.60
2017-11-13T21:37:02.139Z,12.43
2017-11-13T21:39:30.064Z,20.02
2017-11-13T21:41:58.167Z,18.40
2017-11-13T21:44:26.058Z,21.33
2017-11-13T21:46:53.999Z,21.77
2017-11-13T21:49:21.939Z,24.02
2017-11-13T21:51:50.640Z,18.77
2017-11-13T21:54:18.545Z,26.42
2017-11-13T21:56:46.487Z,29.50
2017-11-13T21:59:14.365Z,31.58
2017-11-13T22:01:42.328Z,31.30
2017-11-13T22:04:10.636Z,41.92
2017-11-13T22:06:38.598Z,23.73
2017-11-13T22:09:06.556Z,27.48
2017-11-13T22:11:34.517Z,27.62
2017-11-13T22:14:02.468Z,18.70
2017-11-13T22:16:31.182Z,24.45
2017-11-13T22:18:59.073Z,12.23
2017-11-13T22:21:27.073Z,14.87
2017-11-13T22:23:54.996Z,17.52
2017-11-13T22:26:22.984Z,19.67
2017-11-13T22:28:50.897Z,15.25
2017-11-13T22:31:19.631Z,13.80
2017-11-13T22:33:47.638Z,12.70
2017-11-13T22:36:21.605Z,12.57
2017-11-13T22:38:50.994Z,13.43
2017-11-13T22:41:19.865Z,14.73
2017-11-13T22:43:49.087Z,12.10
2017-11-13T22:46:17.959Z,12.02
2017-11-13T22:48:47.067Z,14.45
2017-11-13T22:51:15.016Z,11.20
2017-11-13T22:53:44.164Z,12.77
2017-11-13T22:56:12.172Z,10.85
2017-11-13T22:58:40.120Z,13.00
2017-11-13T23:01:08.068Z,15.77
2017-11-13T23:03:36.009Z,17.90
2017-11-13T23:06:03.920Z,16.65
2017-11-13T23:08:31.838Z,12.90
2017-11-13T23:11:00.781Z,9.10
2017-11-13T23:13:28.684Z,11.93
2017-11-13T23:15:56.564Z,10.30
2017-11-13T23:18:24.531Z,10.63
2017-11-13T23:20:53.190Z,20.10
2017-11-13T23:23:21.317Z,10.80
2017-11-13T23:25:49.202Z,13.23
2017-11-13T23:28:20.544Z,19.25
2017-11-13T23:30:48.619Z,12.73
2017-11-13T23:33:19.389Z,14.85
2017-11-13T23:35:49.929Z,9.02
2017-11-13T23:38:17.862Z,10.85
2017-11-13T23:40:46.042Z,13.62
2017-11-13T23:43:13.982Z,12.13
2017-11-13T23:45:41.910Z,10.13
2017-11-13T23:48:09.839Z,10.82
2017-11-13T23:50:39.201Z,14.65
2017-11-13T23:53:09.545Z,10.40
2017-11-13T23:55:37.488Z,14.85
2017-11-13T23:58:06.685Z,13.13
